sensor_id;sensor_type;location;lat;lon;timestamp;temperature;humidity
16174;DHT22;14031;50.158;8.626;2023-06-14T00:00:15;20.90;99.90
16174;DHT22;14031;50.158;8.626;2023-06-14T00:02:42;20.70;99.90
16174;DHT22;14031;50.158;8.626;2023-06-14T00:05:09;20.70;99.90
16174;DHT22;14031;50.158;8.626;2023-06-14T00:07:39;20.70;99.90
16174;DHT22;14031;50.158;8.626;2023-06-14T00:10:08;20.70;99.90
16174;DHT22;14031;50.158;8.626;2023-06-14T00:12:38;20.60;99.90
16174;DHT22;14031;50.158;8.626;2023-06-14T00:15:06;20.60;99.90
16174;DHT22;14031;50.158;8.626;2023-06-14T00:17:32;20.50;99.90
16174;DHT22;14031;50.158;8.626;2023-06-14T00:20:00;20.60;99.90
16174;DHT22;14031;50.158;8.626;2023-06-14T00:22:30;20.50;99.90
16174;DHT22;14031;50.158;8.626;2023-06-14T00:24:58;20.50;99.90
16174;DHT22;14031;50.158;8.626;2023-06-14T00:27:25;20.50;99.90
16174;DHT22;14031;50.158;8.626;2023-06-14T00:29:53;20.40;99.90
16174;DHT22;14031;50.158;8.626;2023-06-14T00:32:20;20.50;99.90
16174;DHT22;14031;50.158;8.626;2023-06-14T00:34:51;20.40;99.90
16174;DHT22;14031;50.158;8.626;2023-06-14T00:37:17;20.40;99.90
16174;DHT22;14031;50.158;8.626;2023-06-14T00:39:44;20.40;99.90
16174;DHT22;14031;50.158;8.626;2023-06-14T00:42:11;20.40;99.90
16174;DHT22;14031;50.158;8.626;2023-06-14T00:44:49;20.30;99.90
16174;DHT22;14031;50.158;8.626;2023-06-14T00:47:17;20.30;99.90
16174;DHT22;14031;50.158;8.626;2023-06-14T00:49:45;20.30;99.90
16174;DHT22;14031;50.158;8.626;2023-06-14T00:52:13;20.20;99.90
16174;DHT22;14031;50.158;8.626;2023-06-14T00:54:41;20.20;99.90
16174;DHT22;14031;50.158;8.626;2023-06-14T00:57:08;20.00;99.90
16174;DHT22;14031;50.158;8.626;2023-06-14T00:59:40;20.10;99.90
16174;DHT22;14031;50.158;8.626;2023-06-14T01:02:08;20.10;99.90
16174;DHT22;14031;50.158;8.626;2023-06-14T01:04:39;20.00;99.90
16174;DHT22;14031;50.158;8.626;2023-06-14T01:07:11;20.20;99.90
16174;DHT22;14031;50.158;8.626;2023-06-14T01:09:48;20.00;99.90
16174;DHT22;14031;50.158;8.626;2023-06-14T01:12:24;20.00;99.90
16174;DHT22;14031;50.158;8.626;2023-06-14T01:14:57;20.00;99.90
16174;DHT22;14031;50.158;8.626;2023-06-14T01:17:24;19.90;99.90
16174;DHT22;14031;50.158;8.626;2023-06-14T01:19:53;19.90;99.90
16174;DHT22;14031;50.158;8.626;2023-06-14T01:22:24;19.90;99.90
16174;DHT22;14031;50.158;8.626;2023-06-14T01:24:53;19.80;99.90
16174;DHT22;14031;50.158;8.626;2023-06-14T01:27:22;19.80;99.90
16174;DHT22;14031;50.158;8.626;2023-06-14T01:29:50;19.80;99.90
16174;DHT22;14031;50.158;8.626;2023-06-14T01:32:17;19.90;99.90
16174;DHT22;14031;50.158;8.626;2023-06-14T01:34:45;19.70;99.90
16174;DHT22;14031;50.158;8.626;2023-06-14T01:37:12;19.70;99.90
16174;DHT22;14031;50.158;8.626;2023-06-14T01:39:40;19.70;99.90
16174;DHT22;14031;50.158;8.626;2023-06-14T01:42:09;19.60;99.90
16174;DHT22;14031;50.158;8.626;2023-06-14T01:44:37;19.60;99.90
16174;DHT22;14031;50.158;8.626;2023-06-14T01:47:05;19.60;99.90
16174;DHT22;14031;50.158;8.626;2023-06-14T01:49:33;19.50;99.90
16174;DHT22;14031;50.158;8.626;2023-06-14T01:52:01;19.50;99.90
16174;DHT22;14031;50.158;8.626;2023-06-14T01:54:27;19.40;99.90
16174;DHT22;14031;50.158;8.626;2023-06-14T01:56:54;19.30;99.90
16174;DHT22;14031;50.158;8.626;2023-06-14T01:59:23;19.40;99.90
16174;DHT22;14031;50.158;8.626;2023-06-14T02:01:50;19.40;99.90
16174;DHT22;14031;50.158;8.626;2023-06-14T02:04:17;19.30;99.90
16174;DHT22;14031;50.158;8.626;2023-06-14T02:06:43;19.30;99.90
16174;DHT22;14031;50.158;8.626;2023-06-14T02:09:10;19.30;99.90
16174;DHT22;14031;50.158;8.626;2023-06-14T02:11:37;19.20;99.90
16174;DHT22;14031;50.158;8.626;2023-06-14T02:14:04;19.20;99.90
16174;DHT22;14031;50.158;8.626;2023-06-14T02:16:33;19.20;99.90
16174;DHT22;14031;50.158;8.626;2023-06-14T02:19:01;19.20;99.90
16174;DHT22;14031;50.158;8.626;2023-06-14T02:21:28;19.10;99.90
16174;DHT22;14031;50.158;8.626;2023-06-14T02:23:55;19.10;99.90
16174;DHT22;14031;50.158;8.626;2023-06-14T02:26:22;19.20;99.90
16174;DHT22;14031;50.158;8.626;2023-06-14T02:28:49;19.00;99.90
16174;DHT22;14031;50.158;8.626;2023-06-14T02:31:15;19.00;99.90
16174;DHT22;14031;50.158;8.626;2023-06-14T02:33:44;18.90;99.90
16174;DHT22;14031;50.158;8.626;2023-06-14T02:36:11;18.90;99.90
16174;DHT22;14031;50.158;8.626;2023-06-14T02:38:38;18.80;99.90
16174;DHT22;14031;50.158;8.626;2023-06-14T02:41:04;18.80;99.90
16174;DHT22;14031;50.158;8.626;2023-06-14T02:43:31;18.80;99.90
16174;DHT22;14031;50.158;8.626;2023-06-14T02:45:58;18.90;99.90
16174;DHT22;14031;50.158;8.626;2023-06-14T02:48:25;18.70;99.90
16174;DHT22;14031;50.158;8.626;2023-06-14T02:50:53;18.80;99.90
16174;DHT22;14031;50.158;8.626;2023-06-14T02:53:21;18.60;99.90
16174;DHT22;14031;50.158;8.626;2023-06-14T02:55:48;18.80;99.90
16174;DHT22;14031;50.158;8.626;2023-06-14T02:58:15;18.60;99.90
16174;DHT22;14031;50.158;8.626;2023-06-14T03:00:43;18.60;99.90
16174;DHT22;14031;50.158;8.626;2023-06-14T03:03:10;18.70;99.90
16174;DHT22;14031;50.158;8.626;2023-06-14T03:05:41;18.50;99.90
16174;DHT22;14031;50.158;8.626;2023-06-14T03:08:13;18.50;99.90
16174;DHT22;14031;50.158;8.626;2023-06-14T03:10:42;18.50;99.90
16174;DHT22;14031;50.158;8.626;2023-06-14T03:13:09;18.50;99.90
16174;DHT22;14031;50.158;8.626;2023-06-14T03:15:37;18.50;99.90
16174;DHT22;14031;50.158;8.626;2023-06-14T03:18:07;18.50;99.90
16174;DHT22;14031;50.158;8.626;2023-06-14T03:20:34;18.60;99.90
16174;DHT22;14031;50.158;8.626;2023-06-14T03:23:02;18.60;99.90
16174;DHT22;14031;50.158;8.626;2023-06-14T03:25:31;18.30;99.90
16174;DHT22;14031;50.158;8.626;2023-06-14T03:28:01;18.40;99.90
16174;DHT22;14031;50.158;8.626;2023-06-14T03:30:29;18.40;99.90
16174;DHT22;14031;50.158;8.626;2023-06-14T03:32:56;18.40;99.90
16174;DHT22;14031;50.158;8.626;2023-06-14T03:35:26;18.20;99.90
16174;DHT22;14031;50.158;8.626;2023-06-14T03:37:53;18.30;99.90
16174;DHT22;14031;50.158;8.626;2023-06-14T03:40:21;18.20;99.90
16174;DHT22;14031;50.158;8.626;2023-06-14T03:42:53;18.20;99.90
16174;DHT22;14031;50.158;8.626;2023-06-14T03:45:20;18.20;99.90
16174;DHT22;14031;50.158;8.626;2023-06-14T03:47:47;18.20;99.90
16174;DHT22;14031;50.158;8.626;2023-06-14T03:50:14;18.20;99.90
16174;DHT22;14031;50.158;8.626;2023-06-14T03:52:41;18.10;99.90
16174;DHT22;14031;50.158;8.626;2023-06-14T03:55:09;18.10;99.90
16174;DHT22;14031;50.158;8.626;2023-06-14T03:57:36;18.20;99.90
16174;DHT22;14031;50.158;8.626;2023-06-14T04:00:05;18.20;99.90
16174;DHT22;14031;50.158;8.626;2023-06-14T04:02:33;18.20;99.90
16174;DHT22;14031;50.158;8.626;2023-06-14T04:05:00;18.20;99.90
16174;DHT22;14031;50.158;8.626;2023-06-14T04:07:27;18.10;99.90
16174;DHT22;14031;50.158;8.626;2023-06-14T04:09:55;18.10;99.90
16174;DHT22;14031;50.158;8.626;2023-06-14T04:12:22;18.10;99.90
16174;DHT22;14031;50.158;8.626;2023-06-14T04:14:49;18.20;99.90
16174;DHT22;14031;50.158;8.626;2023-06-14T04:17:17;18.10;99.90
16174;DHT22;14031;50.158;8.626;2023-06-14T04:19:44;18.20;99.90
16174;DHT22;14031;50.158;8.626;2023-06-14T04:22:11;18.30;99.90
16174;DHT22;14031;50.158;8.626;2023-06-14T04:24:38;18.20;99.90
16174;DHT22;14031;50.158;8.626;2023-06-14T04:27:05;18.20;99.90
16174;DHT22;14031;50.158;8.626;2023-06-14T04:29:32;18.20;99.90
16174;DHT22;14031;50.158;8.626;2023-06-14T04:31:59;18.30;99.90
16174;DHT22;14031;50.158;8.626;2023-06-14T04:34:28;18.30;99.90
16174;DHT22;14031;50.158;8.626;2023-06-14T04:36:59;18.30;99.90
16174;DHT22;14031;50.158;8.626;2023-06-14T04:39:27;18.30;99.90
16174;DHT22;14031;50.158;8.626;2023-06-14T04:41:54;18.30;99.90
16174;DHT22;14031;50.158;8.626;2023-06-14T04:44:23;18.40;99.90
16174;DHT22;14031;50.158;8.626;2023-06-14T04:46:55;18.50;99.90
16174;DHT22;14031;50.158;8.626;2023-06-14T04:49:22;18.50;99.90
16174;DHT22;14031;50.158;8.626;2023-06-14T04:51:51;18.50;99.90
16174;DHT22;14031;50.158;8.626;2023-06-14T04:54:22;18.60;99.90
16174;DHT22;14031;50.158;8.626;2023-06-14T04:56:50;18.70;99.90
16174;DHT22;14031;50.158;8.626;2023-06-14T04:59:17;19.10;99.90
16174;DHT22;14031;50.158;8.626;2023-06-14T05:01:43;19.20;99.90
16174;DHT22;14031;50.158;8.626;2023-06-14T05:04:20;19.10;99.90
16174;DHT22;14031;50.158;8.626;2023-06-14T05:06:47;19.20;99.90
16174;DHT22;14031;50.158;8.626;2023-06-14T05:09:16;19.20;99.90
16174;DHT22;14031;50.158;8.626;2023-06-14T05:11:49;19.20;99.90
16174;DHT22;14031;50.158;8.626;2023-06-14T05:14:16;19.10;99.90
16174;DHT22;14031;50.158;8.626;2023-06-14T05:16:43;19.10;99.90
16174;DHT22;14031;50.158;8.626;2023-06-14T05:19:10;19.10;99.90
16174;DHT22;14031;50.158;8.626;2023-06-14T05:21:37;19.00;99.90
16174;DHT22;14031;50.158;8.626;2023-06-14T05:24:05;19.10;99.90
16174;DHT22;14031;50.158;8.626;2023-06-14T05:26:33;19.10;99.90
16174;DHT22;14031;50.158;8.626;2023-06-14T05:29:00;19.10;99.90
16174;DHT22;14031;50.158;8.626;2023-06-14T05:31:28;19.10;99.90
16174;DHT22;14031;50.158;8.626;2023-06-14T05:34:13;19.10;99.90
16174;DHT22;14031;50.158;8.626;2023-06-14T05:36:52;19.20;99.90
16174;DHT22;14031;50.158;8.626;2023-06-14T05:42:48;19.20;99.90
16174;DHT22;14031;50.158;8.626;2023-06-14T05:45:24;19.20;99.90
16174;DHT22;14031;50.158;8.626;2023-06-14T05:48:09;19.30;99.90
16174;DHT22;14031;50.158;8.626;2023-06-14T05:50:42;19.30;99.90
16174;DHT22;14031;50.158;8.626;2023-06-14T05:53:21;19.40;99.90
16174;DHT22;14031;50.158;8.626;2023-06-14T05:56:06;19.40;99.90
16174;DHT22;14031;50.158;8.626;2023-06-14T05:58:37;19.30;99.90
16174;DHT22;14031;50.158;8.626;2023-06-14T06:01:14;19.40;99.90
16174;DHT22;14031;50.158;8.626;2023-06-14T06:04:11;19.40;99.90
16174;DHT22;14031;50.158;8.626;2023-06-14T06:06:47;19.40;99.90
16174;DHT22;14031;50.158;8.626;2023-06-14T06:09:29;19.40;99.90
16174;DHT22;14031;50.158;8.626;2023-06-14T06:11:56;19.40;99.90
16174;DHT22;14031;50.158;8.626;2023-06-14T06:14:24;19.40;99.90
16174;DHT22;14031;50.158;8.626;2023-06-14T06:16:51;19.40;99.90
16174;DHT22;14031;50.158;8.626;2023-06-14T06:19:18;19.20;99.90
16174;DHT22;14031;50.158;8.626;2023-06-14T06:21:45;19.20;99.90
16174;DHT22;14031;50.158;8.626;2023-06-14T06:24:12;19.40;99.90
16174;DHT22;14031;50.158;8.626;2023-06-14T06:26:39;19.50;99.90
16174;DHT22;14031;50.158;8.626;2023-06-14T06:29:06;19.60;99.90
16174;DHT22;14031;50.158;8.626;2023-06-14T06:31:46;19.90;99.90
16174;DHT22;14031;50.158;8.626;2023-06-14T06:34:13;20.00;99.90
16174;DHT22;14031;50.158;8.626;2023-06-14T06:36:39;20.00;99.90
16174;DHT22;14031;50.158;8.626;2023-06-14T06:39:06;19.90;99.90
16174;DHT22;14031;50.158;8.626;2023-06-14T06:41:35;19.80;99.90
16174;DHT22;14031;50.158;8.626;2023-06-14T06:44:03;19.90;99.90
16174;DHT22;14031;50.158;8.626;2023-06-14T06:46:30;20.10;99.90
16174;DHT22;14031;50.158;8.626;2023-06-14T06:48:59;20.00;99.90
16174;DHT22;14031;50.158;8.626;2023-06-14T06:51:26;20.20;99.90
16174;DHT22;14031;50.158;8.626;2023-06-14T06:53:53;20.30;99.90
16174;DHT22;14031;50.158;8.626;2023-06-14T06:56:20;20.30;99.90
16174;DHT22;14031;50.158;8.626;2023-06-14T06:58:47;20.30;99.90
16174;DHT22;14031;50.158;8.626;2023-06-14T07:01:14;20.50;99.90
16174;DHT22;14031;50.158;8.626;2023-06-14T07:03:41;20.50;99.90
16174;DHT22;14031;50.158;8.626;2023-06-14T07:06:09;20.60;99.90
16174;DHT22;14031;50.158;8.626;2023-06-14T07:08:36;20.70;99.90
16174;DHT22;14031;50.158;8.626;2023-06-14T07:11:04;20.80;99.90
16174;DHT22;14031;50.158;8.626;2023-06-14T07:13:31;20.90;99.90
16174;DHT22;14031;50.158;8.626;2023-06-14T07:15:59;21.00;99.90
16174;DHT22;14031;50.158;8.626;2023-06-14T07:18:26;21.00;99.90
16174;DHT22;14031;50.158;8.626;2023-06-14T07:20:53;21.10;99.90
16174;DHT22;14031;50.158;8.626;2023-06-14T07:23:21;21.30;99.90
16174;DHT22;14031;50.158;8.626;2023-06-14T07:25:48;21.10;99.90
16174;DHT22;14031;50.158;8.626;2023-06-14T07:28:16;21.30;99.90
16174;DHT22;14031;50.158;8.626;2023-06-14T07:30:43;21.30;99.90
16174;DHT22;14031;50.158;8.626;2023-06-14T07:33:10;21.50;99.90
16174;DHT22;14031;50.158;8.626;2023-06-14T07:35:37;21.50;99.90
16174;DHT22;14031;50.158;8.626;2023-06-14T07:38:04;21.50;99.90
16174;DHT22;14031;50.158;8.626;2023-06-14T07:40:32;21.70;99.90
16174;DHT22;14031;50.158;8.626;2023-06-14T07:42:59;21.60;99.90
16174;DHT22;14031;50.158;8.626;2023-06-14T07:45:27;21.60;99.90
16174;DHT22;14031;50.158;8.626;2023-06-14T07:47:54;21.60;99.90
16174;DHT22;14031;50.158;8.626;2023-06-14T07:50:22;21.60;99.90
16174;DHT22;14031;50.158;8.626;2023-06-14T07:52:49;21.60;99.90
16174;DHT22;14031;50.158;8.626;2023-06-14T07:55:15;21.60;99.90
16174;DHT22;14031;50.158;8.626;2023-06-14T07:57:44;21.80;99.90
16174;DHT22;14031;50.158;8.626;2023-06-14T08:00:12;21.80;99.90
16174;DHT22;14031;50.158;8.626;2023-06-14T08:02:41;21.90;99.90
16174;DHT22;14031;50.158;8.626;2023-06-14T08:05:09;21.90;99.90
16174;DHT22;14031;50.158;8.626;2023-06-14T08:07:37;21.80;99.90
16174;DHT22;14031;50.158;8.626;2023-06-14T08:10:04;21.90;99.90
16174;DHT22;14031;50.158;8.626;2023-06-14T08:12:31;21.90;99.90
16174;DHT22;14031;50.158;8.626;2023-06-14T08:15:00;21.90;99.90
16174;DHT22;14031;50.158;8.626;2023-06-14T08:17:27;22.00;99.90
16174;DHT22;14031;50.158;8.626;2023-06-14T08:19:54;22.00;99.90
16174;DHT22;14031;50.158;8.626;2023-06-14T08:22:22;22.20;99.90
16174;DHT22;14031;50.158;8.626;2023-06-14T08:24:50;22.40;99.90
16174;DHT22;14031;50.158;8.626;2023-06-14T08:27:18;22.40;99.90
16174;DHT22;14031;50.158;8.626;2023-06-14T08:29:45;22.50;99.90
16174;DHT22;14031;50.158;8.626;2023-06-14T08:32:13;22.50;99.90
16174;DHT22;14031;50.158;8.626;2023-06-14T08:34:40;22.50;99.90
16174;DHT22;14031;50.158;8.626;2023-06-14T08:37:07;22.40;99.90
16174;DHT22;14031;50.158;8.626;2023-06-14T08:39:34;22.40;99.90
16174;DHT22;14031;50.158;8.626;2023-06-14T08:42:02;22.40;99.90
16174;DHT22;14031;50.158;8.626;2023-06-14T08:44:29;22.50;99.90
16174;DHT22;14031;50.158;8.626;2023-06-14T08:46:56;22.60;99.90
16174;DHT22;14031;50.158;8.626;2023-06-14T08:49:25;22.70;99.90
16174;DHT22;14031;50.158;8.626;2023-06-14T08:51:57;22.80;99.90
16174;DHT22;14031;50.158;8.626;2023-06-14T08:54:25;22.70;99.90
16174;DHT22;14031;50.158;8.626;2023-06-14T08:56:55;22.70;99.90
16174;DHT22;14031;50.158;8.626;2023-06-14T08:59:24;22.60;99.90
16174;DHT22;14031;50.158;8.626;2023-06-14T09:01:52;22.70;99.90
16174;DHT22;14031;50.158;8.626;2023-06-14T09:04:20;22.80;99.90
16174;DHT22;14031;50.158;8.626;2023-06-14T09:06:48;22.90;99.90
16174;DHT22;14031;50.158;8.626;2023-06-14T09:09:18;23.00;99.90
16174;DHT22;14031;50.158;8.626;2023-06-14T09:11:46;23.00;99.90
16174;DHT22;14031;50.158;8.626;2023-06-14T09:14:13;23.10;99.90
16174;DHT22;14031;50.158;8.626;2023-06-14T09:16:40;23.10;99.90
16174;DHT22;14031;50.158;8.626;2023-06-14T09:19:07;23.10;99.90
16174;DHT22;14031;50.158;8.626;2023-06-14T09:21:34;23.20;99.90
16174;DHT22;14031;50.158;8.626;2023-06-14T09:24:05;23.20;99.90
16174;DHT22;14031;50.158;8.626;2023-06-14T09:26:32;23.10;99.90
16174;DHT22;14031;50.158;8.626;2023-06-14T09:28:58;23.20;99.90
16174;DHT22;14031;50.158;8.626;2023-06-14T09:31:25;23.40;99.90
16174;DHT22;14031;50.158;8.626;2023-06-14T09:33:57;23.50;99.90
16174;DHT22;14031;50.158;8.626;2023-06-14T09:36:25;23.60;99.90
16174;DHT22;14031;50.158;8.626;2023-06-14T09:38:52;23.70;99.90
16174;DHT22;14031;50.158;8.626;2023-06-14T09:41:20;23.70;99.90
16174;DHT22;14031;50.158;8.626;2023-06-14T09:43:47;23.60;99.90
16174;DHT22;14031;50.158;8.626;2023-06-14T09:46:15;23.40;99.90
16174;DHT22;14031;50.158;8.626;2023-06-14T09:48:42;23.40;99.90
16174;DHT22;14031;50.158;8.626;2023-06-14T09:51:10;23.40;99.90
16174;DHT22;14031;50.158;8.626;2023-06-14T09:53:41;23.50;99.90
16174;DHT22;14031;50.158;8.626;2023-06-14T09:56:10;23.70;99.90
16174;DHT22;14031;50.158;8.626;2023-06-14T09:58:39;23.90;99.90
16174;DHT22;14031;50.158;8.626;2023-06-14T10:01:08;24.10;99.90
16174;DHT22;14031;50.158;8.626;2023-06-14T10:03:39;24.30;99.90
16174;DHT22;14031;50.158;8.626;2023-06-14T10:06:08;24.40;99.90
16174;DHT22;14031;50.158;8.626;2023-06-14T10:08:36;24.50;99.90
16174;DHT22;14031;50.158;8.626;2023-06-14T10:11:04;24.60;99.90
16174;DHT22;14031;50.158;8.626;2023-06-14T10:13:32;24.50;99.90
16174;DHT22;14031;50.158;8.626;2023-06-14T10:16:07;24.50;99.90
16174;DHT22;14031;50.158;8.626;2023-06-14T10:18:43;24.60;99.90
16174;DHT22;14031;50.158;8.626;2023-06-14T10:21:18;24.70;99.90
16174;DHT22;14031;50.158;8.626;2023-06-14T10:23:48;24.90;99.90
16174;DHT22;14031;50.158;8.626;2023-06-14T10:26:20;25.00;99.90
16174;DHT22;14031;50.158;8.626;2023-06-14T10:28:58;25.10;99.90
16174;DHT22;14031;50.158;8.626;2023-06-14T10:34:25;25.10;99.90
16174;DHT22;14031;50.158;8.626;2023-06-14T10:37:03;25.20;99.20
16174;DHT22;14031;50.158;8.626;2023-06-14T10:39:31;25.20;99.60
16174;DHT22;14031;50.158;8.626;2023-06-14T10:41:58;25.20;99.50
16174;DHT22;14031;50.158;8.626;2023-06-14T10:44:49;25.30;99.00
16174;DHT22;14031;50.158;8.626;2023-06-14T10:47:27;25.20;99.60
16174;DHT22;14031;50.158;8.626;2023-06-14T10:49:57;25.40;99.90
16174;DHT22;14031;50.158;8.626;2023-06-14T10:52:27;25.50;99.00
16174;DHT22;14031;50.158;8.626;2023-06-14T10:55:04;25.60;99.00
16174;DHT22;14031;50.158;8.626;2023-06-14T10:57:35;25.60;97.20
16174;DHT22;14031;50.158;8.626;2023-06-14T11:00:03;25.60;99.00
16174;DHT22;14031;50.158;8.626;2023-06-14T11:05:50;25.70;98.90
16174;DHT22;14031;50.158;8.626;2023-06-14T11:08:39;25.90;97.20
16174;DHT22;14031;50.158;8.626;2023-06-14T11:11:08;26.00;97.70
16174;DHT22;14031;50.158;8.626;2023-06-14T11:13:38;26.20;96.80
16174;DHT22;14031;50.158;8.626;2023-06-14T11:16:10;26.30;96.60
16174;DHT22;14031;50.158;8.626;2023-06-14T11:18:38;26.40;96.70
16174;DHT22;14031;50.158;8.626;2023-06-14T11:21:06;26.50;97.10
16174;DHT22;14031;50.158;8.626;2023-06-14T11:23:34;26.60;96.10
16174;DHT22;14031;50.158;8.626;2023-06-14T11:26:01;26.60;95.30
16174;DHT22;14031;50.158;8.626;2023-06-14T11:28:36;26.70;95.10
16174;DHT22;14031;50.158;8.626;2023-06-14T11:31:04;26.80;94.00
16174;DHT22;14031;50.158;8.626;2023-06-14T11:33:30;26.90;95.70
16174;DHT22;14031;50.158;8.626;2023-06-14T11:35:57;27.00;93.20
16174;DHT22;14031;50.158;8.626;2023-06-14T11:38:26;26.90;93.30
16174;DHT22;14031;50.158;8.626;2023-06-14T11:40:53;27.00;92.50
16174;DHT22;14031;50.158;8.626;2023-06-14T11:43:20;27.00;93.20
16174;DHT22;14031;50.158;8.626;2023-06-14T11:45:48;26.80;92.40
16174;DHT22;14031;50.158;8.626;2023-06-14T11:48:15;26.60;91.80
16174;DHT22;14031;50.158;8.626;2023-06-14T11:50:42;26.50;92.80
16174;DHT22;14031;50.158;8.626;2023-06-14T11:53:09;26.60;93.30
16174;DHT22;14031;50.158;8.626;2023-06-14T11:55:38;26.70;92.80
16174;DHT22;14031;50.158;8.626;2023-06-14T11:58:06;26.60;91.40
16174;DHT22;14031;50.158;8.626;2023-06-14T12:00:35;26.50;93.50
16174;DHT22;14031;50.158;8.626;2023-06-14T12:03:03;26.30;94.10
16174;DHT22;14031;50.158;8.626;2023-06-14T12:05:30;26.30;95.00
16174;DHT22;14031;50.158;8.626;2023-06-14T12:07:59;26.20;93.20
16174;DHT22;14031;50.158;8.626;2023-06-14T12:10:27;26.10;94.20
16174;DHT22;14031;50.158;8.626;2023-06-14T12:12:58;26.00;92.70
16174;DHT22;14031;50.158;8.626;2023-06-14T12:15:28;26.20;92.70
16174;DHT22;14031;50.158;8.626;2023-06-14T12:17:56;26.50;92.30
16174;DHT22;14031;50.158;8.626;2023-06-14T12:20:29;26.50;91.80
16174;DHT22;14031;50.158;8.626;2023-06-14T12:22:58;26.30;92.00
16174;DHT22;14031;50.158;8.626;2023-06-14T12:25:27;26.30;93.50
16174;DHT22;14031;50.158;8.626;2023-06-14T12:27:58;26.10;90.40
16174;DHT22;14031;50.158;8.626;2023-06-14T12:30:25;26.10;91.10
16174;DHT22;14031;50.158;8.626;2023-06-14T12:32:52;26.10;91.90
16174;DHT22;14031;50.158;8.626;2023-06-14T12:35:19;26.30;91.60
16174;DHT22;14031;50.158;8.626;2023-06-14T12:37:45;26.40;90.00
16174;DHT22;14031;50.158;8.626;2023-06-14T12:40:12;26.50;90.90
16174;DHT22;14031;50.158;8.626;2023-06-14T12:42:40;26.70;92.30
16174;DHT22;14031;50.158;8.626;2023-06-14T12:45:09;26.90;91.30
16174;DHT22;14031;50.158;8.626;2023-06-14T12:47:36;27.00;90.00
16174;DHT22;14031;50.158;8.626;2023-06-14T12:50:04;26.70;89.40
16174;DHT22;14031;50.158;8.626;2023-06-14T12:52:31;26.60;91.70
16174;DHT22;14031;50.158;8.626;2023-06-14T12:55:01;26.60;91.90
16174;DHT22;14031;50.158;8.626;2023-06-14T12:57:28;26.60;91.70
16174;DHT22;14031;50.158;8.626;2023-06-14T12:59:55;26.60;91.90
16174;DHT22;14031;50.158;8.626;2023-06-14T13:02:23;26.80;92.40
16174;DHT22;14031;50.158;8.626;2023-06-14T13:04:51;27.20;90.30
16174;DHT22;14031;50.158;8.626;2023-06-14T13:07:18;27.80;91.80
16174;DHT22;14031;50.158;8.626;2023-06-14T13:09:45;28.30;90.90
16174;DHT22;14031;50.158;8.626;2023-06-14T13:12:12;28.50;88.20
16174;DHT22;14031;50.158;8.626;2023-06-14T13:14:39;28.80;84.40
16174;DHT22;14031;50.158;8.626;2023-06-14T13:17:08;28.80;82.50
16174;DHT22;14031;50.158;8.626;2023-06-14T13:19:36;28.70;81.80
16174;DHT22;14031;50.158;8.626;2023-06-14T13:22:03;28.60;83.60
16174;DHT22;14031;50.158;8.626;2023-06-14T13:24:30;28.60;83.80
16174;DHT22;14031;50.158;8.626;2023-06-14T13:26:57;28.80;80.20
16174;DHT22;14031;50.158;8.626;2023-06-14T13:29:24;28.90;80.30
16174;DHT22;14031;50.158;8.626;2023-06-14T13:31:52;29.20;83.40
16174;DHT22;14031;50.158;8.626;2023-06-14T13:34:19;29.70;81.90
16174;DHT22;14031;50.158;8.626;2023-06-14T13:36:48;30.20;80.20
16174;DHT22;14031;50.158;8.626;2023-06-14T13:39:15;30.70;80.10
16174;DHT22;14031;50.158;8.626;2023-06-14T13:41:41;31.10;77.90
16174;DHT22;14031;50.158;8.626;2023-06-14T13:44:08;31.10;74.40
16174;DHT22;14031;50.158;8.626;2023-06-14T13:46:36;31.20;76.50
16174;DHT22;14031;50.158;8.626;2023-06-14T13:49:03;31.20;78.50
16174;DHT22;14031;50.158;8.626;2023-06-14T13:51:30;31.50;75.90
16174;DHT22;14031;50.158;8.626;2023-06-14T13:53:59;31.60;75.30
16174;DHT22;14031;50.158;8.626;2023-06-14T13:56:26;31.80;74.40
16174;DHT22;14031;50.158;8.626;2023-06-14T13:58:53;31.70;72.10
16174;DHT22;14031;50.158;8.626;2023-06-14T14:01:20;31.20;74.40
16174;DHT22;14031;50.158;8.626;2023-06-14T14:03:48;30.70;73.50
16174;DHT22;14031;50.158;8.626;2023-06-14T14:06:15;30.70;73.50
16174;DHT22;14031;50.158;8.626;2023-06-14T14:08:42;31.00;74.60
16174;DHT22;14031;50.158;8.626;2023-06-14T14:11:10;31.50;76.30
16174;DHT22;14031;50.158;8.626;2023-06-14T14:13:38;31.80;71.30
16174;DHT22;14031;50.158;8.626;2023-06-14T14:16:05;31.80;69.70
16174;DHT22;14031;50.158;8.626;2023-06-14T14:18:32;32.00;70.60
16174;DHT22;14031;50.158;8.626;2023-06-14T14:20:59;32.40;73.30
16174;DHT22;14031;50.158;8.626;2023-06-14T14:23:27;32.90;70.30
16174;DHT22;14031;50.158;8.626;2023-06-14T14:25:54;33.30;67.80
16174;DHT22;14031;50.158;8.626;2023-06-14T14:28:23;33.10;67.00
16174;DHT22;14031;50.158;8.626;2023-06-14T14:30:51;32.60;68.40
16174;DHT22;14031;50.158;8.626;2023-06-14T14:33:19;32.20;69.10
16174;DHT22;14031;50.158;8.626;2023-06-14T14:35:46;32.10;69.00
16174;DHT22;14031;50.158;8.626;2023-06-14T14:38:13;32.10;69.80
16174;DHT22;14031;50.158;8.626;2023-06-14T14:40:41;31.80;70.00
16174;DHT22;14031;50.158;8.626;2023-06-14T14:43:07;31.90;68.60
16174;DHT22;14031;50.158;8.626;2023-06-14T14:45:36;32.10;68.80
16174;DHT22;14031;50.158;8.626;2023-06-14T14:48:03;32.70;70.50
16174;DHT22;14031;50.158;8.626;2023-06-14T14:50:30;33.30;65.40
16174;DHT22;14031;50.158;8.626;2023-06-14T14:52:57;33.50;66.60
16174;DHT22;14031;50.158;8.626;2023-06-14T14:55:24;33.90;66.30
16174;DHT22;14031;50.158;8.626;2023-06-14T14:57:51;34.20;66.10
16174;DHT22;14031;50.158;8.626;2023-06-14T15:00:18;34.60;66.70
16174;DHT22;14031;50.158;8.626;2023-06-14T15:02:46;35.00;63.70
16174;DHT22;14031;50.158;8.626;2023-06-14T15:05:13;35.00;61.30
16174;DHT22;14031;50.158;8.626;2023-06-14T15:07:40;35.00;62.10
16174;DHT22;14031;50.158;8.626;2023-06-14T15:10:07;34.60;62.90
16174;DHT22;14031;50.158;8.626;2023-06-14T15:12:35;33.90;62.90
16174;DHT22;14031;50.158;8.626;2023-06-14T15:15:02;32.90;61.30
16174;DHT22;14031;50.158;8.626;2023-06-14T15:17:29;32.40;62.50
16174;DHT22;14031;50.158;8.626;2023-06-14T15:19:57;31.90;62.20
16174;DHT22;14031;50.158;8.626;2023-06-14T15:22:24;31.80;65.60
16174;DHT22;14031;50.158;8.626;2023-06-14T15:24:51;32.20;62.50
16174;DHT22;14031;50.158;8.626;2023-06-14T15:27:17;33.00;65.90
16174;DHT22;14031;50.158;8.626;2023-06-14T15:29:44;33.60;62.60
16174;DHT22;14031;50.158;8.626;2023-06-14T15:32:11;34.00;60.20
16174;DHT22;14031;50.158;8.626;2023-06-14T15:34:38;34.10;61.40
16174;DHT22;14031;50.158;8.626;2023-06-14T15:37:07;33.70;60.60
16174;DHT22;14031;50.158;8.626;2023-06-14T15:39:34;33.10;61.40
16174;DHT22;14031;50.158;8.626;2023-06-14T15:42:02;32.80;64.00
16174;DHT22;14031;50.158;8.626;2023-06-14T15:44:29;32.60;63.00
16174;DHT22;14031;50.158;8.626;2023-06-14T15:46:55;32.70;63.40